Time;durP1;ratioP1;P1;durP2;ratioP2;P2;SDS_P1;SDS_P2;PMS_P1;PMS_P2;Temp;Humidity;BMP_temperature;BMP_pressure;BME280_temperature;BME280_humidity;BME280_pressure;Samples;Min_cycle;Max_cycle;Signal;HPM_P1;HPM_P2
2023/04/05 00:01:48;;;;;;;8.57;4.35;;;5.90;80.40;;;;;;4978656;28;20613;-86
2023/04/05 00:04:19;;;;;;;8.40;4.20;;;6.00;81.50;;;;;;4961082;28;20506;-85
2023/04/05 00:06:45;;;;;;;8.18;4.38;;;5.90;81.80;;;;;;4973874;28;20422;-86
2023/04/05 00:09:11;;;;;;;7.60;4.63;;;5.90;81.50;;;;;;4978912;28;20291;-85
2023/04/05 00:11:37;;;;;;;7.22;4.55;;;6.00;81.60;;;;;;4959855;28;20041;-86
2023/04/05 00:14:03;;;;;;;11.20;4.22;;;5.90;81.80;;;;;;4981468;28;20096;-86
2023/04/05 00:16:29;;;;;;;10.75;5.03;;;6.00;81.90;;;;;;4960798;28;20105;-85
2023/04/05 00:18:56;;;;;;;10.40;4.57;;;6.00;82.90;;;;;;4983254;28;20034;-86
2023/04/05 00:21:22;;;;;;;8.20;4.20;;;6.00;83.70;;;;;;4964092;28;20027;-85
2023/04/05 00:23:52;;;;;;;21.25;4.72;;;6.00;84.40;;;;;;4956029;28;20041;-86
2023/04/05 00:26:18;;;;;;;6.70;4.47;;;5.90;84.20;;;;;;4959774;28;20664;-85
2023/04/05 00:28:45;;;;;;;5.90;4.18;;;5.90;83.60;;;;;;4963953;28;20054;-86
2023/04/05 00:31:11;;;;;;;6.32;4.20;;;5.80;83.40;;;;;;4961968;28;20030;-86
2023/04/05 00:33:36;;;;;;;9.82;4.30;;;5.80;83.40;;;;;;4965981;28;20384;-86
2023/04/05 00:36:12;;;;;;;7.85;4.40;;;5.70;83.90;;;;;;4988840;28;20085;-85
2023/04/05 00:38:41;;;;;;;7.97;5.15;;;5.70;84.10;;;;;;4983617;28;20015;-86
2023/04/05 00:41:07;;;;;;;11.27;5.10;;;5.60;84.00;;;;;;4968311;28;20040;-86
2023/04/05 00:43:33;;;;;;;12.15;4.80;;;5.60;84.50;;;;;;4971284;28;20021;-86
2023/04/05 00:46:01;;;;;;;8.82;4.70;;;5.60;84.70;;;;;;4982375;28;20026;-86
2023/04/05 00:48:27;;;;;;;10.88;4.97;;;5.50;85.10;;;;;;4966556;28;20027;-85
2023/04/05 00:50:54;;;;;;;6.47;4.45;;;5.50;85.70;;;;;;4961967;28;20125;-86
2023/04/05 00:53:20;;;;;;;10.75;4.63;;;5.50;86.10;;;;;;4981792;28;20022;-86
2023/04/05 00:55:47;;;;;;;9.23;4.72;;;5.50;86.60;;;;;;4964009;28;20756;-86
2023/04/05 00:58:18;;;;;;;11.02;4.85;;;5.50;86.70;;;;;;4964572;28;20035;-86
2023/04/05 01:01:12;;;;;;;8.70;4.82;;;5.40;87.60;;;;;;4979795;28;20039;-86
2023/04/05 01:03:43;;;;;;;11.02;4.72;;;5.30;88.20;;;;;;4968732;28;20078;-85
2023/04/05 01:06:15;;;;;;;9.95;4.68;;;5.30;88.40;;;;;;4969662;28;20045;-86
2023/04/05 01:08:48;;;;;;;6.75;4.20;;;5.30;88.00;;;;;;4958798;28;20023;-85
2023/04/05 01:11:16;;;;;;;9.68;4.78;;;5.30;88.50;;;;;;4966182;28;20106;-85
2023/04/05 01:13:47;;;;;;;8.43;4.78;;;5.20;87.60;;;;;;4961335;28;20033;-87
2023/04/05 01:16:13;;;;;;;8.80;4.78;;;5.20;88.20;;;;;;4958932;28;20458;-85
2023/04/05 01:18:40;;;;;;;10.88;4.50;;;5.10;89.20;;;;;;4964375;28;20031;-85
2023/04/05 01:21:28;;;;;;;10.73;4.93;;;5.20;89.60;;;;;;4968245;28;20045;-86
2023/04/05 01:24:13;;;;;;;10.23;5.07;;;5.10;89.10;;;;;;4956440;28;20030;-85
2023/04/05 01:26:55;;;;;;;7.40;3.95;;;5.10;88.90;;;;;;4981266;28;20121;-85
2023/04/05 01:29:42;;;;;;;11.82;4.97;;;5.10;89.70;;;;;;4962897;28;20061;-85
2023/04/05 01:32:36;;;;;;;12.20;5.25;;;5.00;89.70;;;;;;4981160;28;20026;-85
2023/04/05 01:35:23;;;;;;;10.13;5.03;;;5.00;90.00;;;;;;4963308;28;20490;-85
2023/04/05 01:37:56;;;;;;;10.40;5.18;;;4.90;90.10;;;;;;4978383;28;20026;-86
2023/04/05 01:40:32;;;;;;;15.73;5.13;;;4.90;90.30;;;;;;4979129;28;20035;-85
2023/04/05 01:43:01;;;;;;;16.33;5.43;;;4.90;90.40;;;;;;4961144;28;20141;-86
2023/04/05 01:45:27;;;;;;;14.75;6.05;;;5.00;90.70;;;;;;4960667;28;20105;-86
2023/04/05 01:47:53;;;;;;;9.73;4.78;;;4.90;90.90;;;;;;4970952;28;20122;-86
2023/04/05 01:50:19;;;;;;;11.75;5.20;;;4.90;91.40;;;;;;4959146;28;20361;-83
2023/04/05 01:52:45;;;;;;;12.98;5.18;;;4.80;90.90;;;;;;4965391;28;20043;-85
2023/04/05 01:55:10;;;;;;;11.95;5.15;;;4.80;91.60;;;;;;4980329;28;20471;-86
2023/04/05 01:57:37;;;;;;;11.18;5.28;;;4.80;92.10;;;;;;4979830;28;20129;-86
2023/04/05 02:00:03;;;;;;;8.95;5.00;;;4.80;92.70;;;;;;4963387;28;20544;-85
2023/04/05 02:02:29;;;;;;;8.07;4.95;;;4.70;93.20;;;;;;4968170;28;20486;-85
2023/04/05 02:04:54;;;;;;;12.80;5.60;;;4.70;93.30;;;;;;4962349;28;20038;-85
2023/04/05 02:07:20;;;;;;;12.80;6.05;;;4.60;93.30;;;;;;4966312;28;20222;-86
2023/04/05 02:09:46;;;;;;;14.13;5.53;;;4.60;93.70;;;;;;4968619;28;20528;-85
2023/04/05 02:12:11;;;;;;;10.65;5.32;;;4.60;93.80;;;;;;4980316;28;20028;-85
2023/04/05 02:14:38;;;;;;;10.85;5.78;;;4.60;94.10;;;;;;4979053;28;20018;-86
2023/04/05 02:17:05;;;;;;;9.25;5.47;;;4.60;94.00;;;;;;4961822;28;20026;-85
2023/04/05 02:19:36;;;;;;;9.30;4.97;;;4.60;94.10;;;;;;4961165;28;20034;-85
2023/04/05 02:22:02;;;;;;;6.78;4.85;;;4.50;94.10;;;;;;4957444;28;20458;-85
2023/04/05 02:24:27;;;;;;;9.60;5.00;;;4.50;94.50;;;;;;4962213;28;20066;-85
2023/04/05 02:26:53;;;;;;;10.25;4.80;;;4.40;95.00;;;;;;4971711;28;20019;-87
2023/04/05 02:29:20;;;;;;;12.90;5.38;;;4.40;95.20;;;;;;4977843;28;20093;-84
2023/04/05 02:31:46;;;;;;;12.10;5.70;;;4.30;95.90;;;;;;4969677;28;20022;-84
2023/04/05 02:34:12;;;;;;;12.95;5.75;;;4.30;95.90;;;;;;4963893;28;20026;-86
2023/04/05 02:36:40;;;;;;;10.10;4.80;;;4.20;96.90;;;;;;4962444;28;20033;-86
2023/04/05 02:39:06;;;;;;;9.07;5.65;;;4.10;96.60;;;;;;4966175;28;20038;-87
2023/04/05 02:41:32;;;;;;;13.00;5.53;;;4.10;96.90;;;;;;4960545;28;20287;-86
2023/04/05 02:44:00;;;;;;;10.13;5.28;;;4.10;97.00;;;;;;4980439;28;20022;-86
2023/04/05 02:46:26;;;;;;;15.07;6.28;;;4.00;97.00;;;;;;4959579;28;20030;-86
2023/04/05 02:48:56;;;;;;;12.20;6.05;;;4.10;97.00;;;;;;4979882;28;20029;-85
2023/04/05 02:51:21;;;;;;;10.38;5.40;;;4.00;97.30;;;;;;4965173;28;20034;-86
2023/04/05 02:53:47;;;;;;;10.93;5.57;;;4.00;97.50;;;;;;4992553;28;20442;-86
2023/04/05 02:56:13;;;;;;;11.20;6.10;;;3.90;97.70;;;;;;4980796;28;20022;-85
2023/04/05 02:58:39;;;;;;;9.13;5.22;;;3.90;97.70;;;;;;4961920;28;20053;-85
2023/04/05 03:01:06;;;;;;;10.85;5.65;;;3.90;97.90;;;;;;4974214;28;20023;-85
2023/04/05 03:03:36;;;;;;;8.60;5.35;;;3.90;97.90;;;;;;4965586;28;20054;-86
2023/04/05 03:06:09;;;;;;;12.00;5.95;;;3.90;98.20;;;;;;4983342;28;20026;-86
2023/04/05 03:08:42;;;;;;;9.00;5.50;;;3.90;98.30;;;;;;4954037;28;20034;-85
2023/04/05 03:11:09;;;;;;;13.20;6.20;;;3.80;98.40;;;;;;4964258;28;20027;-85
2023/04/05 03:13:35;;;;;;;12.60;5.70;;;3.80;98.50;;;;;;4963156;28;20023;-85
2023/04/05 03:16:04;;;;;;;12.13;5.72;;;3.80;99.00;;;;;;4974710;28;20498;-85
2023/04/05 03:18:30;;;;;;;10.27;5.85;;;3.80;99.00;;;;;;4977185;28;20117;-85
2023/04/05 03:20:59;;;;;;;12.45;5.88;;;3.80;99.20;;;;;;4979930;28;20373;-85
2023/04/05 03:23:28;;;;;;;11.88;5.75;;;3.70;99.30;;;;;;4968511;28;20102;-84
2023/04/05 03:25:55;;;;;;;10.82;5.82;;;3.70;99.50;;;;;;4990607;28;20019;-85
2023/04/05 03:28:24;;;;;;;8.52;5.40;;;3.70;99.60;;;;;;4989664;28;20018;-85
2023/04/05 03:30:50;;;;;;;15.02;6.35;;;3.60;99.60;;;;;;4964802;28;20478;-85
2023/04/05 03:33:16;;;;;;;18.10;6.43;;;3.60;99.90;;;;;;4965127;28;20095;-84
2023/04/05 03:35:42;;;;;;;10.55;5.70;;;3.60;99.90;;;;;;4968368;28;20431;-85
2023/04/05 03:38:07;;;;;;;11.63;5.05;;;3.60;99.90;;;;;;4980190;28;20169;-85
2023/04/05 03:40:33;;;;;;;8.95;5.35;;;3.50;99.90;;;;;;4964272;28;20060;-85
2023/04/05 03:42:59;;;;;;;14.00;6.70;;;3.50;99.90;;;;;;4962235;28;20396;-84
2023/04/05 03:45:25;;;;;;;10.40;6.10;;;3.50;99.90;;;;;;4977138;28;20034;-85
2023/04/05 03:47:52;;;;;;;12.63;6.10;;;3.50;99.90;;;;;;4960229;28;20041;-85
2023/04/05 03:50:17;;;;;;;11.07;5.85;;;3.50;99.90;;;;;;4978821;28;20041;-83
2023/04/05 03:52:43;;;;;;;12.05;5.95;;;3.50;99.90;;;;;;4979127;28;20027;-84
2023/04/05 03:55:09;;;;;;;12.50;6.25;;;3.50;99.90;;;;;;4978837;28;20026;-85
2023/04/05 03:57:36;;;;;;;12.02;6.35;;;3.40;99.90;;;;;;4970736;28;20468;-84
2023/04/05 04:00:12;;;;;;;14.55;6.25;;;3.40;99.90;;;;;;4982142;28;20062;-84
2023/04/05 04:02:40;;;;;;;11.23;6.00;;;3.40;99.90;;;;;;4963153;28;20499;-85
2023/04/05 04:05:06;;;;;;;9.98;5.70;;;3.30;99.90;;;;;;4982885;28;20033;-85
2023/04/05 04:07:34;;;;;;;11.63;6.03;;;3.30;99.90;;;;;;4966987;28;20038;-83
2023/04/05 04:10:00;;;;;;;16.10;7.03;;;3.30;99.90;;;;;;4970614;28;20026;-84
2023/04/05 04:12:25;;;;;;;14.45;6.55;;;3.30;99.90;;;;;;4974166;28;20033;-83
2023/04/05 04:14:51;;;;;;;13.48;6.30;;;3.30;99.90;;;;;;4977070;28;20022;-83
2023/04/05 04:17:30;;;;;;;11.27;6.63;;;3.20;99.90;;;;;;4987154;28;20134;-84
2023/04/05 04:19:56;;;;;;;8.60;5.72;;;3.20;99.90;;;;;;4980864;28;20064;-85
2023/04/05 04:22:25;;;;;;;10.15;6.07;;;3.20;99.90;;;;;;4976455;28;20508;-85
2023/04/05 04:24:54;;;;;;;11.65;6.00;;;3.20;99.90;;;;;;4973216;28;20019;-85
2023/04/05 04:27:19;;;;;;;10.45;6.07;;;3.10;99.90;;;;;;4984354;28;20073;-85
2023/04/05 04:29:48;;;;;;;17.63;7.70;;;3.20;99.90;;;;;;4982819;28;20033;-86
2023/04/05 04:32:25;;;;;;;13.27;6.63;;;3.20;99.90;;;;;;4984968;28;20042;-86
2023/04/05 04:34:53;;;;;;;14.57;6.65;;;3.20;99.90;;;;;;4964604;28;20431;-85
2023/04/05 04:37:21;;;;;;;14.48;7.45;;;3.20;99.90;;;;;;4983260;28;20035;-86
2023/04/05 04:39:51;;;;;;;18.42;6.35;;;3.10;99.90;;;;;;4962034;28;20066;-85
2023/04/05 04:42:18;;;;;;;14.43;6.57;;;3.10;99.90;;;;;;4965764;28;20397;-85
2023/04/05 04:44:44;;;;;;;11.02;6.38;;;3.10;99.90;;;;;;4980485;28;20066;-86
2023/04/05 04:47:12;;;;;;;11.00;6.32;;;3.10;99.90;;;;;;4963986;28;20034;-86
2023/04/05 04:49:40;;;;;;;12.93;6.43;;;3.10;99.90;;;;;;4965454;28;20501;-86
2023/04/05 04:52:05;;;;;;;10.98;6.07;;;3.00;99.90;;;;;;4963670;28;20026;-84
2023/04/05 04:54:32;;;;;;;12.77;6.88;;;3.00;99.90;;;;;;4981302;28;20026;-85
2023/04/05 04:57:00;;;;;;;12.82;6.53;;;3.00;99.90;;;;;;4973302;28;20029;-85
2023/04/05 04:59:28;;;;;;;14.52;6.38;;;3.00;99.90;;;;;;4968611;28;20030;-84
2023/04/05 05:01:54;;;;;;;11.15;6.38;;;3.00;99.90;;;;;;4980090;28;20231;-86
2023/04/05 05:04:20;;;;;;;13.27;6.60;;;2.90;99.90;;;;;;4978403;28;20259;-86
2023/04/05 05:06:49;;;;;;;12.40;5.90;;;3.00;99.90;;;;;;4965006;28;20034;-84
2023/04/05 05:09:17;;;;;;;17.45;6.75;;;2.90;99.90;;;;;;4964996;28;20034;-85
2023/04/05 05:11:42;;;;;;;8.38;5.88;;;2.90;99.90;;;;;;4961257;28;20490;-85
2023/04/05 05:14:08;;;;;;;17.92;6.63;;;2.90;99.90;;;;;;4965654;28;20029;-85
2023/04/05 05:16:33;;;;;;;19.15;6.38;;;2.90;99.90;;;;;;4979136;28;20022;-85
2023/04/05 05:18:59;;;;;;;13.40;6.30;;;3.00;99.90;;;;;;4981685;28;20037;-85
2023/04/05 05:21:25;;;;;;;11.27;6.18;;;3.00;99.90;;;;;;4980326;28;20038;-87
2023/04/05 05:23:51;;;;;;;13.50;6.78;;;3.00;99.90;;;;;;4979962;28;20054;-87
2023/04/05 05:26:16;;;;;;;12.60;6.30;;;3.00;99.90;;;;;;4976181;28;20167;-85
2023/04/05 05:28:42;;;;;;;8.90;6.05;;;3.00;99.90;;;;;;4960438;28;20034;-85
2023/04/05 05:31:08;;;;;;;15.73;7.15;;;3.00;99.90;;;;;;4979669;28;20109;-85
2023/04/05 05:33:33;;;;;;;8.88;5.45;;;3.00;99.90;;;;;;4969985;28;20030;-84
2023/04/05 05:35:59;;;;;;;14.60;7.20;;;3.00;99.90;;;;;;4980831;28;20105;-85
2023/04/05 05:38:25;;;;;;;16.92;7.00;;;3.00;99.90;;;;;;4963918;28;20489;-89
2023/04/05 05:40:57;;;;;;;25.00;8.80;;;3.00;99.90;;;;;;4964144;28;20045;-86
2023/04/05 05:43:23;;;;;;;16.52;7.38;;;3.10;99.90;;;;;;4959237;28;20022;-87
2023/04/05 05:45:49;;;;;;;14.88;6.72;;;3.10;99.90;;;;;;4967653;28;20061;-86
2023/04/05 05:48:15;;;;;;;17.25;6.20;;;3.20;99.90;;;;;;4963592;28;20041;-86
2023/04/05 05:50:40;;;;;;;9.95;6.25;;;3.20;99.90;;;;;;4973547;28;20026;-87
2023/04/05 05:53:06;;;;;;;10.05;5.78;;;3.30;99.90;;;;;;4964881;28;20339;-87
2023/04/05 05:55:32;;;;;;;12.52;6.68;;;3.40;99.90;;;;;;4971375;28;20026;-85
2023/04/05 05:57:57;;;;;;;14.90;6.05;;;3.40;99.90;;;;;;4961797;28;20019;-85
2023/04/05 06:00:23;;;;;;;15.07;6.25;;;3.50;99.90;;;;;;4979304;28;20124;-86
2023/04/05 06:02:49;;;;;;;11.38;5.93;;;3.60;99.90;;;;;;4982491;28;20029;-84
2023/04/05 06:05:14;;;;;;;10.15;5.85;;;3.70;99.90;;;;;;4966916;28;20030;-85
2023/04/05 06:07:40;;;;;;;14.48;6.43;;;3.80;99.90;;;;;;4961036;28;20053;-85
2023/04/05 06:10:07;;;;;;;14.07;6.22;;;3.90;99.90;;;;;;4963289;28;20120;-86
2023/04/05 06:12:33;;;;;;;13.10;6.25;;;4.00;99.90;;;;;;4967277;28;20030;-88
2023/04/05 06:15:00;;;;;;;12.30;5.70;;;4.10;99.90;;;;;;4959742;28;20034;-89
2023/04/05 06:17:25;;;;;;;12.40;6.15;;;4.10;99.90;;;;;;4962587;28;20038;-84
2023/04/05 06:19:51;;;;;;;13.68;5.88;;;4.20;99.90;;;;;;4981458;28;20034;-87
2023/04/05 06:22:17;;;;;;;11.40;6.20;;;4.20;99.90;;;;;;4959021;28;20026;-87
2023/04/05 06:24:43;;;;;;;11.25;6.00;;;4.30;99.90;;;;;;4983311;28;20030;-86
2023/04/05 06:27:08;;;;;;;10.68;5.95;;;4.30;99.90;;;;;;4964419;28;20022;-86
2023/04/05 06:29:34;;;;;;;13.13;5.47;;;4.40;99.90;;;;;;4969747;28;20073;-86
2023/04/05 06:32:00;;;;;;;7.85;5.03;;;4.50;99.90;;;;;;4963393;28;20089;-86
2023/04/05 06:34:26;;;;;;;8.63;5.47;;;4.50;99.90;;;;;;4960798;28;20038;-87
2023/04/05 06:36:54;;;;;;;13.90;6.22;;;4.60;99.90;;;;;;4962944;28;20197;-86
2023/04/05 06:39:20;;;;;;;12.18;6.15;;;4.70;99.90;;;;;;4963434;28;20746;-86
2023/04/05 06:41:46;;;;;;;12.23;6.18;;;4.80;99.90;;;;;;4961818;28;20061;-86
2023/04/05 06:44:11;;;;;;;7.75;5.35;;;4.90;99.90;;;;;;4962488;28;20068;-87
2023/04/05 06:46:37;;;;;;;13.63;6.72;;;4.90;99.90;;;;;;4961085;28;20061;-86
2023/04/05 06:49:05;;;;;;;10.77;6.13;;;5.00;99.90;;;;;;4961035;28;20036;-87
2023/04/05 06:51:31;;;;;;;11.50;6.15;;;5.10;99.90;;;;;;4961798;28;20074;-87
2023/04/05 06:53:57;;;;;;;14.57;6.28;;;5.20;99.90;;;;;;4964344;28;20029;-86
2023/04/05 06:56:25;;;;;;;13.88;6.32;;;5.20;99.90;;;;;;4959332;28;20082;-87
2023/04/05 06:58:54;;;;;;;14.15;6.72;;;5.30;99.90;;;;;;4970040;28;20367;-87
2023/04/05 07:01:23;;;;;;;12.60;6.90;;;5.40;99.90;;;;;;4961764;28;20762;-87
2023/04/05 07:03:49;;;;;;;9.32;5.97;;;5.40;99.90;;;;;;4973623;28;20065;-86
2023/04/05 07:06:15;;;;;;;8.57;5.80;;;5.50;99.90;;;;;;4965408;28;20073;-86
2023/04/05 07:08:43;;;;;;;13.50;5.57;;;5.50;99.90;;;;;;4971324;28;20029;-87
2023/04/05 07:11:09;;;;;;;15.75;6.70;;;5.50;99.90;;;;;;4963512;28;20033;-87
2023/04/05 07:13:35;;;;;;;12.88;6.10;;;5.50;99.90;;;;;;4973381;28;20023;-87
2023/04/05 07:16:01;;;;;;;10.05;6.32;;;5.60;99.90;;;;;;4990547;28;20110;-86
2023/04/05 07:18:28;;;;;;;11.27;5.95;;;5.70;99.90;;;;;;4984201;28;20033;-87
2023/04/05 07:20:59;;;;;;;12.52;7.38;;;5.80;99.90;;;;;;4964851;28;20494;-87
2023/04/05 07:23:26;;;;;;;12.68;6.97;;;6.00;99.90;;;;;;4962362;28;20583;-87
2023/04/05 07:25:52;;;;;;;9.60;6.28;;;6.10;99.90;;;;;;4966777;28;20088;-87
2023/04/05 07:28:18;;;;;;;11.73;6.97;;;6.20;99.90;;;;;;4963494;28;20026;-87
2023/04/05 07:30:45;;;;;;;8.75;6.25;;;6.30;99.90;;;;;;4979723;28;20142;-87
2023/04/05 07:33:11;;;;;;;11.50;6.22;;;6.30;99.40;;;;;;4971420;28;20557;-88
2023/04/05 07:35:42;;;;;;;8.27;5.93;;;6.40;99.30;;;;;;4976276;28;20015;-88
2023/04/05 07:38:10;;;;;;;12.30;6.82;;;6.40;99.30;;;;;;4962824;28;20057;-88
2023/04/05 07:40:35;;;;;;;10.98;6.20;;;6.50;99.00;;;;;;4966084;28;20050;-88
2023/04/05 07:43:01;;;;;;;13.68;6.85;;;6.60;98.80;;;;;;4985469;28;20125;-88
2023/04/05 07:45:26;;;;;;;12.43;6.55;;;6.70;98.80;;;;;;4966329;28;20465;-88
2023/04/05 07:47:54;;;;;;;14.00;6.43;;;6.80;98.70;;;;;;4981166;28;20097;-87
2023/04/05 07:50:20;;;;;;;15.15;6.10;;;6.90;98.50;;;;;;4967229;28;20030;-88
2023/04/05 07:52:46;;;;;;;14.35;6.43;;;7.00;98.40;;;;;;4972424;28;20030;-88
2023/04/05 07:55:11;;;;;;;11.48;6.40;;;7.10;97.70;;;;;;4981754;28;20030;-88
2023/04/05 07:57:37;;;;;;;10.50;6.72;;;7.20;98.20;;;;;;4966173;28;20085;-88
2023/04/05 08:00:04;;;;;;;8.75;6.45;;;7.40;98.50;;;;;;4963204;28;20038;-88
2023/04/05 08:02:30;;;;;;;7.93;5.80;;;7.50;98.30;;;;;;4983264;28;20160;-88
2023/04/05 08:04:58;;;;;;;14.98;6.85;;;7.70;97.90;;;;;;4968335;28;20293;-88
2023/04/05 08:07:24;;;;;;;8.52;5.40;;;7.70;97.80;;;;;;4970013;28;20036;-90
2023/04/05 08:09:52;;;;;;;9.48;5.50;;;7.80;97.80;;;;;;4973622;28;20011;-89
2023/04/05 08:12:20;;;;;;;8.98;6.10;;;8.00;97.90;;;;;;4972814;28;20098;-87
2023/04/05 08:14:48;;;;;;;9.27;6.53;;;8.20;97.10;;;;;;4984896;28;20149;-87
2023/04/05 08:17:15;;;;;;;10.13;5.78;;;8.30;95.70;;;;;;4982359;28;20197;-88
2023/04/05 08:19:40;;;;;;;9.25;5.25;;;8.40;94.70;;;;;;4970574;28;20039;-88
2023/04/05 08:22:06;;;;;;;17.00;5.72;;;8.60;94.50;;;;;;4984731;28;20681;-83
2023/04/05 08:24:34;;;;;;;9.75;5.25;;;8.80;93.90;;;;;;4982781;28;20054;-85
2023/04/05 08:27:00;;;;;;;6.90;4.57;;;9.00;92.50;;;;;;4982133;28;20026;-85
2023/04/05 08:29:25;;;;;;;6.97;4.90;;;9.20;92.40;;;;;;4968175;28;20076;-86
2023/04/05 08:31:51;;;;;;;5.88;4.45;;;9.30;90.80;;;;;;4963358;28;20029;-88
2023/04/05 08:34:17;;;;;;;8.55;5.05;;;9.50;90.70;;;;;;4970480;28;20675;-84
2023/04/05 08:36:43;;;;;;;10.95;5.18;;;9.80;91.00;;;;;;4965192;28;20018;-87
2023/04/05 08:39:09;;;;;;;13.27;4.82;;;10.00;90.70;;;;;;4971881;28;20058;-87
2023/04/05 08:41:49;;;;;;;8.93;5.13;;;10.30;90.10;;;;;;4964486;28;20150;-86
2023/04/05 08:44:18;;;;;;;7.03;4.70;;;10.50;89.20;;;;;;4961829;28;20300;-85
2023/04/05 08:46:44;;;;;;;7.40;5.30;;;10.90;87.60;;;;;;4965542;28;20057;-85
2023/04/05 08:49:10;;;;;;;12.27;5.15;;;11.20;87.00;;;;;;4965837;28;20124;-86
2023/04/05 08:51:40;;;;;;;9.23;4.80;;;11.60;85.70;;;;;;4982628;28;20022;-85
2023/04/05 08:54:06;;;;;;;8.85;4.55;;;11.80;83.90;;;;;;4960597;28;20019;-85
2023/04/05 08:56:33;;;;;;;10.20;4.65;;;12.10;81.30;;;;;;4965871;28;20046;-85
2023/04/05 08:59:06;;;;;;;12.52;4.80;;;12.30;78.00;;;;;;4982792;28;20374;-85
2023/04/05 09:01:32;;;;;;;;;;;12.50;77.20;;;;;;4960820;28;20113;-89
2023/04/05 09:04:15;;;;;;;10.35;4.53;;;12.80;78.00;;;;;;4967076;28;19909;-89
2023/04/05 09:06:42;;;;;;;;;;;13.00;74.20;;;;;;4978580;28;20030;-88
2023/04/05 09:09:08;;;;;;;7.18;4.38;;;13.20;73.10;;;;;;4975170;28;20081;-88
2023/04/05 09:11:34;;;;;;;4.85;3.60;;;13.20;67.60;;;;;;4971796;28;20067;-89
2023/04/05 09:14:04;;;;;;;3.92;3.53;;;13.40;68.80;;;;;;4983397;28;20015;-89
2023/04/05 09:16:36;;;;;;;5.88;4.22;;;13.60;66.00;;;;;;4978554;28;20029;-88
2023/04/05 09:19:01;;;;;;;4.90;3.65;;;13.80;64.40;;;;;;4975549;28;20018;-89
2023/04/05 09:21:28;;;;;;;7.35;3.97;;;14.10;63.20;;;;;;4975164;28;20045;-89
2023/04/05 09:23:54;;;;;;;6.78;4.05;;;14.40;61.50;;;;;;4977349;28;20026;-89
2023/04/05 09:26:24;;;;;;;11.27;4.05;;;14.60;60.90;;;;;;4983404;28;20030;-88
2023/04/05 09:28:53;;;;;;;8.02;4.22;;;14.80;64.50;;;;;;4958856;28;20310;-89
2023/04/05 09:31:35;;;;;;;8.90;4.35;;;14.90;62.00;;;;;;4974727;28;20037;-88
2023/04/05 09:34:05;;;;;;;10.67;4.20;;;15.30;58.70;;;;;;4983837;28;20158;-88
2023/04/05 09:36:36;;;;;;;4.68;4.03;;;15.80;59.20;;;;;;4970691;28;20270;-87
2023/04/05 09:39:06;;;;;;;6.97;3.58;;;16.60;59.80;;;;;;4955331;28;20134;-88
2023/04/05 09:41:36;;;;;;;6.72;4.10;;;16.80;56.20;;;;;;4956923;28;20391;-87
2023/04/05 09:44:02;;;;;;;5.78;3.85;;;17.00;54.00;;;;;;4971049;28;20116;-87
2023/04/05 09:46:33;;;;;;;7.25;3.85;;;17.30;52.90;;;;;;4966338;28;20078;-88
2023/04/05 09:49:00;;;;;;;6.57;4.07;;;17.50;51.70;;;;;;4972332;28;20019;-87
2023/04/05 09:51:34;;;;;;;8.07;5.50;;;17.90;50.50;;;;;;4963048;28;20030;-89
2023/04/05 09:54:08;;;;;;;6.43;4.53;;;18.20;51.40;;;;;;4965810;28;20031;-89
2023/04/05 09:56:36;;;;;;;5.75;4.05;;;18.40;49.70;;;;;;4961230;28;20026;-88
2023/04/05 09:59:11;;;;;;;7.25;4.43;;;18.60;50.20;;;;;;4974270;28;20472;-88
2023/04/05 10:01:38;;;;;;;4.90;4.15;;;19.20;48.20;;;;;;4978002;28;20117;-88
2023/04/05 10:04:04;;;;;;;9.25;4.22;;;19.30;47.20;;;;;;4981830;28;20099;-88
2023/04/05 10:06:40;;;;;;;10.90;5.00;;;19.50;47.70;;;;;;4979049;28;20558;-89
2023/04/05 10:09:10;;;;;;;5.63;4.53;;;19.10;45.40;;;;;;4977442;28;20049;-89
2023/04/05 10:11:43;;;;;;;11.57;4.80;;;18.40;46.60;;;;;;4965635;28;20432;-88
2023/04/05 10:14:08;;;;;;;6.00;4.60;;;18.20;47.30;;;;;;4976198;28;20040;-88
2023/04/05 10:17:02;;;;;;;8.93;5.03;;;17.90;47.60;;;;;;4979877;28;20102;-88
2023/04/05 10:19:47;;;;;;;9.35;4.82;;;18.00;48.10;;;;;;4966221;28;20134;-88
2023/04/05 10:22:17;;;;;;;9.43;4.60;;;18.20;45.70;;;;;;4957919;28;20034;-88
2023/04/05 10:24:55;;;;;;;6.40;4.35;;;17.90;45.60;;;;;;4974461;28;20029;-88
2023/04/05 10:27:26;;;;;;;8.63;4.85;;;18.10;48.90;;;;;;4978562;28;20034;-89
2023/04/05 10:30:03;;;;;;;7.93;4.47;;;18.10;47.30;;;;;;4964886;28;20160;-89
2023/04/05 10:32:45;;;;;;;10.18;4.65;;;18.30;47.30;;;;;;4957912;28;20022;-88
2023/04/05 10:35:27;;;;;;;7.20;4.75;;;17.20;47.10;;;;;;4958771;28;20022;-89
2023/04/05 10:38:18;;;;;;;10.73;4.25;;;16.70;48.10;;;;;;4961582;28;20185;-88
2023/04/05 10:40:48;;;;;;;8.15;4.78;;;17.30;50.10;;;;;;4959741;28;20042;-88
2023/04/05 10:43:21;;;;;;;7.55;5.57;;;17.30;47.50;;;;;;4971646;28;20395;-88
2023/04/05 10:45:50;;;;;;;5.57;4.65;;;17.90;49.10;;;;;;4972622;28;20101;-88
2023/04/05 10:48:28;;;;;;;7.15;4.70;;;18.30;46.90;;;;;;4949683;28;20022;-88
2023/04/05 10:50:55;;;;;;;5.18;3.80;;;18.50;46.90;;;;;;4962477;28;20026;-88
2023/04/05 10:53:21;;;;;;;6.45;4.50;;;18.40;44.20;;;;;;4975033;28;20022;-88
2023/04/05 10:55:49;;;;;;;5.18;4.22;;;18.50;43.90;;;;;;4959773;28;20023;-88
2023/04/05 10:58:15;;;;;;;13.10;4.95;;;18.70;46.50;;;;;;4968213;28;20034;-88
2023/04/05 11:00:41;;;;;;;5.68;4.40;;;18.60;45.40;;;;;;4975759;28;20041;-89
2023/04/05 11:03:07;;;;;;;6.38;4.35;;;18.30;44.10;;;;;;4974620;28;20026;-88
2023/04/05 11:05:38;;;;;;;6.65;4.28;;;18.90;43.50;;;;;;4973889;28;20031;-89
2023/04/05 11:08:07;;;;;;;7.20;4.78;;;19.30;43.30;;;;;;4975128;28;20423;-89
2023/04/05 11:10:37;;;;;;;5.78;4.55;;;19.60;42.20;;;;;;4976939;28;20790;-89
2023/04/05 11:13:05;;;;;;;6.97;4.72;;;19.80;42.10;;;;;;4965781;28;20032;-89
2023/04/05 11:15:33;;;;;;;7.40;4.57;;;19.90;41.90;;;;;;4971166;28;20057;-88
2023/04/05 11:18:23;;;;;;;5.25;4.25;;;18.70;40.80;;;;;;4961392;28;20342;-89
2023/04/05 11:20:54;;;;;;;5.45;4.72;;;18.90;45.10;;;;;;4963745;28;20038;-89
2023/04/05 11:23:22;;;;;;;6.57;4.72;;;18.60;42.50;;;;;;4965997;28;20029;-89
2023/04/05 11:26:03;;;;;;;6.95;4.88;;;18.30;42.80;;;;;;4973738;28;20041;-89
2023/04/05 11:28:36;;;;;;;11.88;4.80;;;18.50;42.50;;;;;;4959936;28;20026;-89
2023/04/05 11:31:19;;;;;;;10.30;5.47;;;18.10;44.00;;;;;;4976934;28;20027;-88
2023/04/05 11:33:44;;;;;;;5.57;4.68;;;18.30;43.20;;;;;;4966221;28;20026;-88
2023/04/05 11:36:11;;;;;;;4.95;4.30;;;18.60;45.30;;;;;;4966099;28;20029;-88
2023/04/05 11:38:39;;;;;;;6.10;4.45;;;18.80;44.00;;;;;;4980698;28;20030;-88
2023/04/05 11:41:20;;;;;;;6.72;5.20;;;18.90;43.30;;;;;;4965730;28;20053;-88
2023/04/05 11:43:46;;;;;;;6.78;4.68;;;18.80;42.00;;;;;;4966883;28;20030;-89
2023/04/05 11:46:14;;;;;;;6.00;4.60;;;18.80;41.60;;;;;;4980850;28;20029;-89
2023/04/05 11:48:41;;;;;;;5.00;4.50;;;18.80;43.20;;;;;;4974112;28;20170;-88
2023/04/05 11:51:11;;;;;;;6.15;5.03;;;19.30;43.00;;;;;;4977179;28;20018;-89
2023/04/05 11:53:37;;;;;;;5.88;4.95;;;19.30;42.50;;;;;;4958180;28;20117;-88
2023/04/05 11:56:12;;;;;;;9.35;5.68;;;19.10;42.30;;;;;;4978957;28;20053;-88
2023/04/05 11:58:38;;;;;;;8.20;5.00;;;18.60;43.20;;;;;;4976794;28;20035;-88
2023/04/05 12:01:07;;;;;;;10.55;5.20;;;18.80;44.80;;;;;;4979445;28;20038;-87
2023/04/05 12:03:34;;;;;;;6.72;4.93;;;19.20;43.40;;;;;;4960553;28;20034;-89
2023/04/05 12:06:02;;;;;;;5.90;4.78;;;19.00;43.40;;;;;;5002784;28;20038;-87
2023/04/05 12:08:41;;;;;;;5.70;4.68;;;19.00;41.80;;;;;;5003906;28;20042;-87
2023/04/05 12:11:11;;;;;;;7.20;5.10;;;19.00;41.80;;;;;;4962730;28;20065;-87
2023/04/05 12:13:38;;;;;;;8.75;5.18;;;18.90;42.30;;;;;;4975451;28;20030;-88
2023/04/05 12:16:05;;;;;;;7.47;4.93;;;18.60;43.60;;;;;;4959219;28;20026;-88
2023/04/05 12:18:33;;;;;;;6.38;4.90;;;18.10;42.40;;;;;;4966960;28;20109;-88
2023/04/05 12:21:01;;;;;;;8.00;5.10;;;18.20;43.40;;;;;;4973135;28;20044;-88
2023/04/05 12:23:27;;;;;;;4.85;4.43;;;18.60;42.30;;;;;;4974685;28;20102;-88
2023/04/05 12:25:57;;;;;;;9.02;5.45;;;18.60;42.80;;;;;;4979714;28;20143;-87
2023/04/05 12:28:24;;;;;;;13.10;5.70;;;18.60;42.20;;;;;;4979130;28;20050;-87
2023/04/05 12:30:49;;;;;;;5.00;4.50;;;19.10;43.20;;;;;;4977744;28;20396;-88
2023/04/05 12:33:32;;;;;;;7.55;4.85;;;19.30;41.30;;;;;;4958119;28;20070;-87
2023/04/05 12:36:03;;;;;;;7.07;4.78;;;19.40;41.10;;;;;;4970812;28;20030;-86
2023/04/05 12:38:29;;;;;;;7.63;5.63;;;19.50;41.60;;;;;;4984678;28;20031;-86
2023/04/05 12:41:04;;;;;;;7.65;4.88;;;19.40;40.50;;;;;;4967164;28;20057;-86
2023/04/05 12:43:40;;;;;;;11.30;4.90;;;19.50;40.50;;;;;;4977440;28;20023;-86
2023/04/05 12:46:16;;;;;;;7.45;4.78;;;19.50;41.00;;;;;;4968906;28;20026;-87
2023/04/05 12:48:44;;;;;;;7.13;4.63;;;19.60;39.90;;;;;;4978600;28;20030;-86
2023/04/05 12:51:15;;;;;;;8.35;5.32;;;19.80;39.30;;;;;;4958655;28;20121;-86
2023/04/05 12:53:48;;;;;;;5.70;4.47;;;20.00;38.70;;;;;;4976305;28;20022;-86
2023/04/05 12:56:15;;;;;;;4.53;4.10;;;20.20;38.40;;;;;;4975667;28;20229;-86